Flight Track Log - Related Links

Times and Time Zones

All times are in EDT time to prevent confusion due to time zone crossing. See the GGN7287 flight status page for this flight to view local times or setup timezone preferences in your user account.

Time Position Orientation Groundspeed Altitude Reporting Facility
EDT Latitude Longitude Course Direction KTS MPH feet Rate Location/Type
Mon 03:15:44 PM 43.1097 -76.1319 267° West 144 166 1,100  Level Boston Center
Mon 03:16:20 PM 43.1083 -76.1747 267° West 163 188 2,100 1,546 Climbing Boston Center
Mon 03:17:21 PM 43.1228 -76.2381 287° West 192 221 3,600 1,289 Climbing Boston Center
Mon 03:18:21 PM 43.1475 -76.3136 294° West 222 255 4,700 1,100 Climbing Boston Center
Mon 03:19:21 PM 43.1700 -76.3864 293° West 221 254 5,800 1,041 Climbing Boston Center
Mon 03:20:22 PM 43.1817 -76.4669 281° West 216 249 6,800 938 Climbing Boston Center
Mon 03:20:57 PM 43.1867 -76.5056 280° West 224 258 7,300 1,011 Climbing Cleveland Center
Mon 03:21:57 PM 43.1875 -76.5881 271° West 224 258 8,400 1,000 Climbing Cleveland Center
Mon 03:22:57 PM 43.1861 -76.6706 269° West 224 258 9,300 800 Climbing Cleveland Center
Mon 03:23:57 PM 43.1744 -76.7569 260° West 224 258 10,000 750 Climbing Cleveland Center
Mon 03:24:57 PM 43.1644 -76.8372 260° West 224 258 10,800 800 Climbing Cleveland Center
Mon 03:25:57 PM 43.1547 -76.9203 261° West 224 258 11,600 800 Climbing Cleveland Center
Mon 03:26:57 PM 43.1447 -77.0033 261° West 224 258 12,400 750 Climbing Cleveland Center
Mon 03:27:57 PM 43.1347 -77.0894 261° West 224 258 13,100 700 Climbing Cleveland Center
Mon 03:28:57 PM 43.1228 -77.1756 259° West 224 258 13,800 700 Climbing Cleveland Center
Mon 03:29:57 PM 43.1128 -77.2586 261° West 224 258 14,500 700 Climbing Cleveland Center
Mon 03:30:57 PM 43.1006 -77.3444 259° West 229 264 15,200 700 Climbing Cleveland Center
Mon 03:31:57 PM 43.0906 -77.4361 262° West 234 269 15,900 350 Climbing Cleveland Center
Mon 03:32:57 PM 43.0806 -77.5247 261° West 239 275 15,900 50 Level Cleveland Center
Mon 03:33:57 PM 43.0661 -77.6133 257° West 239 275 16,000  Climbing Cleveland Center
Mon 03:34:57 PM 43.0558 -77.7050 261° West 239 275 15,900 -50 Descending Cleveland Center
Mon 03:35:57 PM 43.0436 -77.8019 260° West 239 275 15,900 50 Level Cleveland Center
Mon 03:36:57 PM 43.0333 -77.8906 261° West 239 275 16,000  Climbing Cleveland Center
Mon 03:37:57 PM 43.0208 -77.9819 259° West 239 275 15,900  Descending Cleveland Center
Mon 03:38:57 PM 43.0081 -78.0706 259° West 239 275 16,000 50 Climbing Cleveland Center
Mon 03:39:57 PM 42.9956 -78.1619 259° West 239 275 16,000  Level Cleveland Center
Mon 03:40:57 PM 42.9850 -78.2531 261° West 239 275 16,000 -50 Level Cleveland Center
Mon 03:41:57 PM 42.9719 -78.3417 259° West 239 275 15,900  Descending Cleveland Center
Mon 03:42:57 PM 42.9592 -78.4356 259° West 239 275 16,000 50 Climbing Cleveland Center
Mon 03:43:57 PM 42.9464 -78.5242 259° West 239 275 16,000 -400 Level Cleveland Center
Mon 03:44:57 PM 42.9353 -78.6181 261° West 244 281 15,200 -950 Descending Cleveland Center
Mon 03:45:57 PM 42.9556 -78.7081 287° West 244 281 14,100 -650 Descending Cleveland Center
Mon 03:46:57 PM 43.0006 -78.7806 310° West 239 275 13,900 -223 Descending Cleveland Center
Mon 03:49:05 PM 43.0833 -78.9333 307° West 240 276 13,400 -606 Descending Toronto Center
Mon 03:50:05 PM 43.1167 -79.0000 304° West 260 299 12,000 -1,250 Descending Toronto Center
Mon 03:51:05 PM 43.1667 -79.0833 309° West 270 311 10,900 -1,250 Descending Toronto Center
Mon 03:52:05 PM 43.2000 -79.1833 295° West 260 299 9,500 -950 Descending Toronto Center
Mon 03:53:05 PM 43.2500 -79.2500 316° Northwest 260 299 9,000 -250 Descending Toronto Center
Mon 03:54:05 PM 43.2833 -79.3167 304° West 240 276 9,000 -200 Level Toronto Center
Mon 03:56:05 PM 43.4000 -79.4000 333° Northwest 260 299 8,400 -333 Descending Toronto Center
Mon 03:57:05 PM 43.4667 -79.4500 331° Northwest 240 276 8,000 -450 Descending Toronto Center
Mon 03:58:05 PM 43.5333 -79.4667 350° North 240 276 7,500 -950 Descending Toronto Center
Mon 03:59:05 PM 43.6000 -79.5000 340° North 240 276 6,100 -1,550 Descending Toronto Center
Mon 04:00:05 PM 43.6500 -79.4667 26° Northeast 220 253 4,400 -1,550 Descending Toronto Center
Mon 04:01:05 PM 43.6833 -79.4000 55° Northeast 220 253 3,000 -700 Descending Toronto Center
Mon 04:02:05 PM 43.7167 -79.4000 360° North 190 219 3,000  Level Toronto Center
Mon 04:03:05 PM 43.7333 -79.4667 289° West 180 207 3,000 -500 Level Toronto Center
Mon 04:04:05 PM 43.7167 -79.5167 245° Southwest 160 184 2,000 -1,000 Descending Toronto Center
Mon 04:05:05 PM 43.6833 -79.5667 227° Southwest 150 173 1,000 -750 Descending Toronto Center
Mon 04:06:05 PM 43.6667 -79.5833 216° Southwest 130 150 500 -500 Descending Toronto Center

Login

Don't have an account? Register now (free) for customized features, flight alerts, and more!